sensor_id;sensor_type;location;lat;lon;timestamp;P1;durP1;ratioP1;P2;durP2;ratioP2
49582;SDS011;36329;48.816;44.624;2023-02-15T00:02:57;3.4;;;1.9;;
49582;SDS011;36329;48.816;44.624;2023-02-15T00:06:10;4.2;;;1.9;;
49582;SDS011;36329;48.816;44.624;2023-02-15T00:09:12;3.4;;;2.1;;
49582;SDS011;36329;48.816;44.624;2023-02-15T00:12:15;5.7;;;2.6;;
49582;SDS011;36329;48.816;44.624;2023-02-15T00:15:18;5.5;;;2.9;;
49582;SDS011;36329;48.816;44.624;2023-02-15T00:18:20;8.4;;;3.4;;
49582;SDS011;36329;48.816;44.624;2023-02-15T00:21:22;8.9;;;4.1;;
49582;SDS011;36329;48.816;44.624;2023-02-15T00:24:30;7.9;;;4.1;;
49582;SDS011;36329;48.816;44.624;2023-02-15T00:27:33;8;;;4;;
49582;SDS011;36329;48.816;44.624;2023-02-15T00:30:35;5.9;;;3.8;;
49582;SDS011;36329;48.816;44.624;2023-02-15T00:33:39;6.4;;;4.1;;
49582;SDS011;36329;48.816;44.624;2023-02-15T00:36:41;7.9;;;4.1;;
49582;SDS011;36329;48.816;44.624;2023-02-15T00:39:46;6.3;;;4;;
49582;SDS011;36329;48.816;44.624;2023-02-15T00:42:48;6.7;;;4.1;;
49582;SDS011;36329;48.816;44.624;2023-02-15T00:45:50;6.3;;;3.9;;
49582;SDS011;36329;48.816;44.624;2023-02-15T00:48:57;5.9;;;4;;
49582;SDS011;36329;48.816;44.624;2023-02-15T00:52:06;7.5;;;4.1;;
49582;SDS011;36329;48.816;44.624;2023-02-15T00:55:08;7.1;;;4.1;;
49582;SDS011;36329;48.816;44.624;2023-02-15T00:58:10;5.3;;;3.8;;
49582;SDS011;36329;48.816;44.624;2023-02-15T01:01:14;6.3;;;4.2;;
49582;SDS011;36329;48.816;44.624;2023-02-15T01:04:18;5.9;;;3.9;;
49582;SDS011;36329;48.816;44.624;2023-02-15T01:07:21;6.6;;;4.2;;
49582;SDS011;36329;48.816;44.624;2023-02-15T01:10:23;6.7;;;4.4;;
49582;SDS011;36329;48.816;44.624;2023-02-15T01:13:25;5.7;;;3.9;;
49582;SDS011;36329;48.816;44.624;2023-02-15T01:16:32;7.3;;;4.8;;
49582;SDS011;36329;48.816;44.624;2023-02-15T01:19:34;13.2;;;4.8;;
49582;SDS011;36329;48.816;44.624;2023-02-15T01:22:36;8.3;;;4.8;;
49582;SDS011;36329;48.816;44.624;2023-02-15T01:25:39;11.3;;;5.3;;
49582;SDS011;36329;48.816;44.624;2023-02-15T01:28:51;9.8;;;5.2;;
49582;SDS011;36329;48.816;44.624;2023-02-15T01:31:59;9.6;;;5.4;;
49582;SDS011;36329;48.816;44.624;2023-02-15T01:35:03;10.8;;;5.7;;
49582;SDS011;36329;48.816;44.624;2023-02-15T01:38:05;8.5;;;5.3;;
49582;SDS011;36329;48.816;44.624;2023-02-15T01:41:07;7.9;;;5;;
49582;SDS011;36329;48.816;44.624;2023-02-15T01:47:43;7.1;;;5;;
49582;SDS011;36329;48.816;44.624;2023-02-15T01:50:47;7.5;;;4.7;;
49582;SDS011;36329;48.816;44.624;2023-02-15T01:54:01;8.6;;;4.8;;
49582;SDS011;36329;48.816;44.624;2023-02-15T01:57:13;10.9;;;5;;
49582;SDS011;36329;48.816;44.624;2023-02-15T02:00:20;10.5;;;4.8;;
49582;SDS011;36329;48.816;44.624;2023-02-15T02:03:24;9.2;;;4.5;;
49582;SDS011;36329;48.816;44.624;2023-02-15T02:06:50;10.5;;;4.5;;
49582;SDS011;36329;48.816;44.624;2023-02-15T02:09:57;8.5;;;4.4;;
49582;SDS011;36329;48.816;44.624;2023-02-15T02:13:03;8.5;;;4.6;;
49582;SDS011;36329;48.816;44.624;2023-02-15T02:16:09;8.3;;;4.6;;
49582;SDS011;36329;48.816;44.624;2023-02-15T02:19:34;9.4;;;4.8;;
49582;SDS011;36329;48.816;44.624;2023-02-15T02:30:02;8.1;;;4.3;;
49582;SDS011;36329;48.816;44.624;2023-02-15T02:33:16;8.8;;;4.5;;
49582;SDS011;36329;48.816;44.624;2023-02-15T02:36:33;8.4;;;4;;
49582;SDS011;36329;48.816;44.624;2023-02-15T02:39:42;6.8;;;3.7;;
49582;SDS011;36329;48.816;44.624;2023-02-15T02:42:54;7.6;;;3.8;;
49582;SDS011;36329;48.816;44.624;2023-02-15T02:46:08;7.9;;;4.1;;
49582;SDS011;36329;48.816;44.624;2023-02-15T02:49:30;7.7;;;4.2;;
49582;SDS011;36329;48.816;44.624;2023-02-15T02:52:35;8.6;;;4.2;;
49582;SDS011;36329;48.816;44.624;2023-02-15T02:55:46;9.7;;;4.9;;
49582;SDS011;36329;48.816;44.624;2023-02-15T02:59:05;8.5;;;4.4;;
49582;SDS011;36329;48.816;44.624;2023-02-15T03:02:17;8.9;;;4.6;;
49582;SDS011;36329;48.816;44.624;2023-02-15T03:05:32;8.7;;;4.4;;
49582;SDS011;36329;48.816;44.624;2023-02-15T03:08:40;9;;;4.4;;
49582;SDS011;36329;48.816;44.624;2023-02-15T03:12:07;9.6;;;4.6;;
49582;SDS011;36329;48.816;44.624;2023-02-15T03:15:24;8.1;;;4.1;;
49582;SDS011;36329;48.816;44.624;2023-02-15T03:18:33;9.3;;;4.6;;
49582;SDS011;36329;48.816;44.624;2023-02-15T03:21:57;9.1;;;4.7;;
49582;SDS011;36329;48.816;44.624;2023-02-15T03:25:12;9.5;;;4.5;;
49582;SDS011;36329;48.816;44.624;2023-02-15T03:28:20;9.1;;;4.5;;
49582;SDS011;36329;48.816;44.624;2023-02-15T03:31:32;8.2;;;4.2;;
49582;SDS011;36329;48.816;44.624;2023-02-15T03:34:41;8.8;;;4.8;;
49582;SDS011;36329;48.816;44.624;2023-02-15T03:37:50;7.8;;;4.2;;
49582;SDS011;36329;48.816;44.624;2023-02-15T03:41:02;8.4;;;4.7;;
49582;SDS011;36329;48.816;44.624;2023-02-15T03:44:14;9.2;;;5;;
49582;SDS011;36329;48.816;44.624;2023-02-15T03:47:22;10.5;;;5.4;;
49582;SDS011;36329;48.816;44.624;2023-02-15T03:50:41;12.3;;;6.4;;
49582;SDS011;36329;48.816;44.624;2023-02-15T03:53:46;13.4;;;6.4;;
49582;SDS011;36329;48.816;44.624;2023-02-15T03:56:50;11.3;;;6.2;;
49582;SDS011;36329;48.816;44.624;2023-02-15T03:59:58;13.9;;;6.6;;
49582;SDS011;36329;48.816;44.624;2023-02-15T04:03:07;11.2;;;7;;
49582;SDS011;36329;48.816;44.624;2023-02-15T04:06:20;11.9;;;7.1;;
49582;SDS011;36329;48.816;44.624;2023-02-15T04:09:28;14.5;;;7.2;;
49582;SDS011;36329;48.816;44.624;2023-02-15T04:12:32;14.3;;;7.8;;
49582;SDS011;36329;48.816;44.624;2023-02-15T04:15:34;14.5;;;8.2;;
49582;SDS011;36329;48.816;44.624;2023-02-15T04:18:42;14.6;;;7.7;;
49582;SDS011;36329;48.816;44.624;2023-02-15T04:21:45;14.7;;;7.8;;
49582;SDS011;36329;48.816;44.624;2023-02-15T04:24:50;14.6;;;8.4;;
49582;SDS011;36329;48.816;44.624;2023-02-15T04:27:53;16.3;;;8.3;;
49582;SDS011;36329;48.816;44.624;2023-02-15T04:31:02;16.3;;;8.3;;
49582;SDS011;36329;48.816;44.624;2023-02-15T04:34:06;14.8;;;7.6;;
49582;SDS011;36329;48.816;44.624;2023-02-15T04:40:38;17.6;;;8.6;;
49582;SDS011;36329;48.816;44.624;2023-02-15T04:43:41;13.8;;;7.3;;
49582;SDS011;36329;48.816;44.624;2023-02-15T04:46:58;10.6;;;6.5;;
49582;SDS011;36329;48.816;44.624;2023-02-15T04:50:01;12.7;;;6.9;;
49582;SDS011;36329;48.816;44.624;2023-02-15T04:53:11;9.5;;;5.5;;
49582;SDS011;36329;48.816;44.624;2023-02-15T04:56:15;14.1;;;7.3;;
49582;SDS011;36329;48.816;44.624;2023-02-15T04:59:17;14;;;7.7;;
49582;SDS011;36329;48.816;44.624;2023-02-15T05:02:41;15.5;;;7.8;;
49582;SDS011;36329;48.816;44.624;2023-02-15T05:05:46;16.2;;;7.6;;
49582;SDS011;36329;48.816;44.624;2023-02-15T05:08:54;18.7;;;8;;
49582;SDS011;36329;48.816;44.624;2023-02-15T05:11:59;18.7;;;7.8;;
49582;SDS011;36329;48.816;44.624;2023-02-15T05:15:11;16.6;;;7.7;;
49582;SDS011;36329;48.816;44.624;2023-02-15T05:18:26;19.5;;;8.7;;
49582;SDS011;36329;48.816;44.624;2023-02-15T05:21:33;15.9;;;7.7;;
49582;SDS011;36329;48.816;44.624;2023-02-15T05:24:39;17.6;;;7.8;;
49582;SDS011;36329;48.816;44.624;2023-02-15T05:27:52;15.9;;;7.4;;
49582;SDS011;36329;48.816;44.624;2023-02-15T05:31:00;18.3;;;8.4;;
49582;SDS011;36329;48.816;44.624;2023-02-15T05:34:29;11.6;;;6.5;;
49582;SDS011;36329;48.816;44.624;2023-02-15T05:37:56;17.2;;;7.8;;
49582;SDS011;36329;48.816;44.624;2023-02-15T05:44:19;16.7;;;7.1;;
49582;SDS011;36329;48.816;44.624;2023-02-15T05:47:33;12.2;;;6.4;;
49582;SDS011;36329;48.816;44.624;2023-02-15T05:50:43;14.1;;;6;;
49582;SDS011;36329;48.816;44.624;2023-02-15T05:53:51;9.4;;;5.2;;
49582;SDS011;36329;48.816;44.624;2023-02-15T05:56:57;12.5;;;6.2;;
49582;SDS011;36329;48.816;44.624;2023-02-15T06:00:18;12.7;;;5.5;;
49582;SDS011;36329;48.816;44.624;2023-02-15T06:03:27;10.6;;;5.4;;
49582;SDS011;36329;48.816;44.624;2023-02-15T06:06:40;11.9;;;5.7;;
49582;SDS011;36329;48.816;44.624;2023-02-15T06:10:14;12.1;;;6.1;;
49582;SDS011;36329;48.816;44.624;2023-02-15T06:13:26;10.2;;;5.8;;
49582;SDS011;36329;48.816;44.624;2023-02-15T06:16:46;11.2;;;6.1;;
49582;SDS011;36329;48.816;44.624;2023-02-15T06:19:58;12.2;;;6;;
49582;SDS011;36329;48.816;44.624;2023-02-15T06:23:09;11.1;;;5.5;;
49582;SDS011;36329;48.816;44.624;2023-02-15T06:26:12;15.5;;;7.1;;
49582;SDS011;36329;48.816;44.624;2023-02-15T06:29:16;17.4;;;7.6;;
49582;SDS011;36329;48.816;44.624;2023-02-15T06:32:44;15;;;7.1;;
49582;SDS011;36329;48.816;44.624;2023-02-15T06:35:54;11;;;5.6;;
49582;SDS011;36329;48.816;44.624;2023-02-15T06:42:23;11.8;;;5.9;;
49582;SDS011;36329;48.816;44.624;2023-02-15T06:45:46;10.9;;;5.3;;
49582;SDS011;36329;48.816;44.624;2023-02-15T06:49:05;9.4;;;6.2;;
49582;SDS011;36329;48.816;44.624;2023-02-15T06:52:23;11.2;;;6.2;;
49582;SDS011;36329;48.816;44.624;2023-02-15T06:55:28;10;;;6.5;;
49582;SDS011;36329;48.816;44.624;2023-02-15T06:58:38;10.1;;;6.5;;
49582;SDS011;36329;48.816;44.624;2023-02-15T07:01:44;9.5;;;5.7;;
49582;SDS011;36329;48.816;44.624;2023-02-15T07:04:53;9;;;6.2;;
49582;SDS011;36329;48.816;44.624;2023-02-15T07:08:00;8.3;;;5.7;;
49582;SDS011;36329;48.816;44.624;2023-02-15T07:11:12;8.5;;;5.9;;
49582;SDS011;36329;48.816;44.624;2023-02-15T07:14:16;9.3;;;6.1;;
49582;SDS011;36329;48.816;44.624;2023-02-15T07:17:20;10.3;;;6.7;;
49582;SDS011;36329;48.816;44.624;2023-02-15T07:20:28;8.8;;;6.4;;
49582;SDS011;36329;48.816;44.624;2023-02-15T07:23:40;9.8;;;6.3;;
49582;SDS011;36329;48.816;44.624;2023-02-15T07:26:50;9.8;;;6.8;;
49582;SDS011;36329;48.816;44.624;2023-02-15T07:30:11;10.4;;;6.9;;
49582;SDS011;36329;48.816;44.624;2023-02-15T07:33:31;11.5;;;7.1;;
49582;SDS011;36329;48.816;44.624;2023-02-15T07:36:35;8.6;;;6.1;;
49582;SDS011;36329;48.816;44.624;2023-02-15T07:40:07;10;;;6.4;;
49582;SDS011;36329;48.816;44.624;2023-02-15T07:43:19;10.3;;;7.2;;
49582;SDS011;36329;48.816;44.624;2023-02-15T07:46:32;11.3;;;7;;
49582;SDS011;36329;48.816;44.624;2023-02-15T07:49:48;11.2;;;7;;
49582;SDS011;36329;48.816;44.624;2023-02-15T07:53:18;9.3;;;7.1;;
49582;SDS011;36329;48.816;44.624;2023-02-15T07:56:28;10.3;;;7.1;;
49582;SDS011;36329;48.816;44.624;2023-02-15T07:59:34;9.3;;;6.2;;
49582;SDS011;36329;48.816;44.624;2023-02-15T08:02:47;9.4;;;6.4;;
49582;SDS011;36329;48.816;44.624;2023-02-15T08:06:11;8.9;;;6.2;;
49582;SDS011;36329;48.816;44.624;2023-02-15T08:09:16;8.7;;;6.4;;
49582;SDS011;36329;48.816;44.624;2023-02-15T08:12:35;10.2;;;6.3;;
49582;SDS011;36329;48.816;44.624;2023-02-15T08:15:51;10;;;6.5;;
49582;SDS011;36329;48.816;44.624;2023-02-15T08:19:08;9.2;;;6.5;;
49582;SDS011;36329;48.816;44.624;2023-02-15T08:22:42;8.7;;;5.8;;
49582;SDS011;36329;48.816;44.624;2023-02-15T08:26:12;9.1;;;5.9;;
49582;SDS011;36329;48.816;44.624;2023-02-15T08:32:39;9.6;;;5.9;;
49582;SDS011;36329;48.816;44.624;2023-02-15T08:36:02;7.1;;;5.6;;
49582;SDS011;36329;48.816;44.624;2023-02-15T08:39:35;8.6;;;6.4;;
49582;SDS011;36329;48.816;44.624;2023-02-15T08:43:12;9.9;;;6.6;;
49582;SDS011;36329;48.816;44.624;2023-02-15T08:46:32;9.7;;;6.4;;
49582;SDS011;36329;48.816;44.624;2023-02-15T08:49:49;10.8;;;7.3;;
49582;SDS011;36329;48.816;44.624;2023-02-15T08:56:32;9.9;;;7.4;;
49582;SDS011;36329;48.816;44.624;2023-02-15T08:59:52;9.7;;;7.3;;
49582;SDS011;36329;48.816;44.624;2023-02-15T09:03:09;8.3;;;6.3;;
49582;SDS011;36329;48.816;44.624;2023-02-15T09:06:15;11.6;;;7.1;;
49582;SDS011;36329;48.816;44.624;2023-02-15T09:09:58;9.7;;;7;;
49582;SDS011;36329;48.816;44.624;2023-02-15T09:13:14;10.4;;;6.9;;
49582;SDS011;36329;48.816;44.624;2023-02-15T09:16:42;9.4;;;7;;
49582;SDS011;36329;48.816;44.624;2023-02-15T09:19:48;9.6;;;7;;
49582;SDS011;36329;48.816;44.624;2023-02-15T09:23:13;12.1;;;7.4;;
49582;SDS011;36329;48.816;44.624;2023-02-15T09:26:42;9.1;;;7;;
49582;SDS011;36329;48.816;44.624;2023-02-15T09:29:53;9.5;;;6.6;;
49582;SDS011;36329;48.816;44.624;2023-02-15T09:33:03;10.8;;;7.3;;
49582;SDS011;36329;48.816;44.624;2023-02-15T09:47:27;10.2;;;7.5;;
49582;SDS011;36329;48.816;44.624;2023-02-15T09:50:53;9.2;;;7.1;;
49582;SDS011;36329;48.816;44.624;2023-02-15T09:54:20;10.7;;;7.8;;
49582;SDS011;36329;48.816;44.624;2023-02-15T09:57:51;11.6;;;8.2;;
49582;SDS011;36329;48.816;44.624;2023-02-15T10:01:10;8.8;;;7.1;;
49582;SDS011;36329;48.816;44.624;2023-02-15T10:04:49;12;;;7.8;;
49582;SDS011;36329;48.816;44.624;2023-02-15T10:08:17;11.2;;;8;;
49582;SDS011;36329;48.816;44.624;2023-02-15T10:12:08;11.5;;;8.3;;
49582;SDS011;36329;48.816;44.624;2023-02-15T10:15:36;12.2;;;8.4;;
49582;SDS011;36329;48.816;44.624;2023-02-15T10:19:02;11.3;;;8.8;;
49582;SDS011;36329;48.816;44.624;2023-02-15T10:22:27;13.3;;;9.8;;
49582;SDS011;36329;48.816;44.624;2023-02-15T10:25:45;13.6;;;9.5;;
49582;SDS011;36329;48.816;44.624;2023-02-15T10:29:26;12;;;9.2;;
49582;SDS011;36329;48.816;44.624;2023-02-15T10:33:11;11.9;;;9.5;;
49582;SDS011;36329;48.816;44.624;2023-02-15T10:40:37;13.8;;;10.2;;
49582;SDS011;36329;48.816;44.624;2023-02-15T10:44:00;14;;;10.4;;
49582;SDS011;36329;48.816;44.624;2023-02-15T10:51:02;15.9;;;11.3;;
49582;SDS011;36329;48.816;44.624;2023-02-15T10:54:09;16.2;;;11.4;;
49582;SDS011;36329;48.816;44.624;2023-02-15T11:01:43;16.7;;;11.5;;
49582;SDS011;36329;48.816;44.624;2023-02-15T11:08:59;15.7;;;11.3;;
49582;SDS011;36329;48.816;44.624;2023-02-15T11:12:19;17;;;11.9;;
49582;SDS011;36329;48.816;44.624;2023-02-15T11:19:30;16.4;;;11.5;;
49582;SDS011;36329;48.816;44.624;2023-02-15T11:23:08;16.4;;;11.7;;
49582;SDS011;36329;48.816;44.624;2023-02-15T11:26:54;15.2;;;10.8;;
49582;SDS011;36329;48.816;44.624;2023-02-15T11:30:40;15.1;;;11.1;;
49582;SDS011;36329;48.816;44.624;2023-02-15T11:34:12;16.8;;;11.7;;
49582;SDS011;36329;48.816;44.624;2023-02-15T11:37:46;14.5;;;10.3;;
49582;SDS011;36329;48.816;44.624;2023-02-15T11:41:13;14.3;;;9.7;;
49582;SDS011;36329;48.816;44.624;2023-02-15T11:44:49;17;;;10;;
49582;SDS011;36329;48.816;44.624;2023-02-15T11:48:23;13.7;;;9.3;;
49582;SDS011;36329;48.816;44.624;2023-02-15T11:51:35;13.9;;;9;;
49582;SDS011;36329;48.816;44.624;2023-02-15T11:55:22;14.7;;;10;;
49582;SDS011;36329;48.816;44.624;2023-02-15T11:58:47;14.9;;;10;;
49582;SDS011;36329;48.816;44.624;2023-02-15T12:02:11;15.8;;;9.6;;
49582;SDS011;36329;48.816;44.624;2023-02-15T12:05:47;15.3;;;9.9;;
49582;SDS011;36329;48.816;44.624;2023-02-15T12:09:27;15.2;;;9.6;;
49582;SDS011;36329;48.816;44.624;2023-02-15T12:16:45;15.7;;;9.4;;
49582;SDS011;36329;48.816;44.624;2023-02-15T12:20:25;16.2;;;9.6;;
49582;SDS011;36329;48.816;44.624;2023-02-15T12:31:20;13.8;;;8.7;;
49582;SDS011;36329;48.816;44.624;2023-02-15T12:38:30;13.1;;;8.1;;
49582;SDS011;36329;48.816;44.624;2023-02-15T12:42:02;13.2;;;7.6;;
49582;SDS011;36329;48.816;44.624;2023-02-15T12:45:22;13.8;;;8.1;;
49582;SDS011;36329;48.816;44.624;2023-02-15T12:48:29;10.4;;;7;;
49582;SDS011;36329;48.816;44.624;2023-02-15T12:51:32;10.2;;;6.8;;
49582;SDS011;36329;48.816;44.624;2023-02-15T12:54:53;10.6;;;6.3;;
49582;SDS011;36329;48.816;44.624;2023-02-15T12:58:08;9.4;;;6.4;;
49582;SDS011;36329;48.816;44.624;2023-02-15T13:01:29;9.1;;;6.4;;
49582;SDS011;36329;48.816;44.624;2023-02-15T13:04:46;11.9;;;7.1;;
49582;SDS011;36329;48.816;44.624;2023-02-15T13:07:54;10.6;;;7.1;;
49582;SDS011;36329;48.816;44.624;2023-02-15T13:11:11;10;;;5.9;;
49582;SDS011;36329;48.816;44.624;2023-02-15T13:14:42;11.3;;;6.3;;
49582;SDS011;36329;48.816;44.624;2023-02-15T13:17:51;10.5;;;5.9;;
49582;SDS011;36329;48.816;44.624;2023-02-15T13:21:04;9.6;;;6.1;;
49582;SDS011;36329;48.816;44.624;2023-02-15T13:24:28;10.6;;;6.5;;
49582;SDS011;36329;48.816;44.624;2023-02-15T13:27:52;8.3;;;6;;
49582;SDS011;36329;48.816;44.624;2023-02-15T13:31:12;9;;;5.8;;
49582;SDS011;36329;48.816;44.624;2023-02-15T13:34:21;10.8;;;6.4;;
49582;SDS011;36329;48.816;44.624;2023-02-15T13:37:40;8.4;;;5.8;;
49582;SDS011;36329;48.816;44.624;2023-02-15T13:41:07;12.4;;;6.8;;
49582;SDS011;36329;48.816;44.624;2023-02-15T13:44:24;11.5;;;6.6;;
49582;SDS011;36329;48.816;44.624;2023-02-15T13:51:21;11.3;;;7.1;;
49582;SDS011;36329;48.816;44.624;2023-02-15T13:59:02;12.8;;;7.2;;
49582;SDS011;36329;48.816;44.624;2023-02-15T14:10:10;14.6;;;7.6;;
49582;SDS011;36329;48.816;44.624;2023-02-15T14:17:20;15.1;;;8.5;;
49582;SDS011;36329;48.816;44.624;2023-02-15T14:20:50;17;;;7.6;;
49582;SDS011;36329;48.816;44.624;2023-02-15T14:24:20;12.4;;;6.6;;
49582;SDS011;36329;48.816;44.624;2023-02-15T14:27:41;12;;;6.7;;
49582;SDS011;36329;48.816;44.624;2023-02-15T14:31:00;11.3;;;6.3;;
49582;SDS011;36329;48.816;44.624;2023-02-15T14:34:27;13.3;;;7.1;;
49582;SDS011;36329;48.816;44.624;2023-02-15T14:37:44;16.2;;;7.1;;
49582;SDS011;36329;48.816;44.624;2023-02-15T14:45:04;10.9;;;7;;
49582;SDS011;36329;48.816;44.624;2023-02-15T14:48:31;15.3;;;7.7;;
49582;SDS011;36329;48.816;44.624;2023-02-15T14:55:36;13.3;;;7.4;;
49582;SDS011;36329;48.816;44.624;2023-02-15T15:02:29;11.5;;;6.5;;
49582;SDS011;36329;48.816;44.624;2023-02-15T15:06:06;10.9;;;6.4;;
49582;SDS011;36329;48.816;44.624;2023-02-15T15:09:13;12.3;;;6.4;;
49582;SDS011;36329;48.816;44.624;2023-02-15T15:12:37;10.2;;;6;;
49582;SDS011;36329;48.816;44.624;2023-02-15T15:15:49;11.1;;;6.1;;
49582;SDS011;36329;48.816;44.624;2023-02-15T15:19:08;10.2;;;6.2;;
49582;SDS011;36329;48.816;44.624;2023-02-15T15:22:30;8.2;;;5.4;;
49582;SDS011;36329;48.816;44.624;2023-02-15T15:25:55;9.6;;;5.7;;
49582;SDS011;36329;48.816;44.624;2023-02-15T15:29:09;10.6;;;5.9;;
49582;SDS011;36329;48.816;44.624;2023-02-15T15:32:24;7.6;;;5.1;;
49582;SDS011;36329;48.816;44.624;2023-02-15T15:39:31;12;;;5.3;;
49582;SDS011;36329;48.816;44.624;2023-02-15T15:46:50;13.7;;;6.2;;
49582;SDS011;36329;48.816;44.624;2023-02-15T15:50:25;12.4;;;6.4;;
49582;SDS011;36329;48.816;44.624;2023-02-15T15:53:33;9.5;;;5.4;;
49582;SDS011;36329;48.816;44.624;2023-02-15T15:57:06;8.8;;;5.2;;
49582;SDS011;36329;48.816;44.624;2023-02-15T16:00:32;10.1;;;5.8;;
49582;SDS011;36329;48.816;44.624;2023-02-15T16:03:53;9.6;;;5.2;;
49582;SDS011;36329;48.816;44.624;2023-02-15T16:07:18;9.7;;;5.2;;
49582;SDS011;36329;48.816;44.624;2023-02-15T16:10:34;8.7;;;5.4;;
49582;SDS011;36329;48.816;44.624;2023-02-15T16:17:20;11.9;;;5.8;;
49582;SDS011;36329;48.816;44.624;2023-02-15T16:20:35;8.8;;;5.5;;
49582;SDS011;36329;48.816;44.624;2023-02-15T16:24:16;10.8;;;4.9;;
49582;SDS011;36329;48.816;44.624;2023-02-15T16:28:05;10.5;;;5.5;;
49582;SDS011;36329;48.816;44.624;2023-02-15T16:31:29;13;;;5.6;;
49582;SDS011;36329;48.816;44.624;2023-02-15T16:42:06;10.3;;;5.4;;
49582;SDS011;36329;48.816;44.624;2023-02-15T16:45:29;12.1;;;5.7;;
49582;SDS011;36329;48.816;44.624;2023-02-15T16:49:00;15;;;5.5;;
49582;SDS011;36329;48.816;44.624;2023-02-15T16:52:34;11.5;;;5.6;;
49582;SDS011;36329;48.816;44.624;2023-02-15T16:55:49;10.8;;;5.7;;
49582;SDS011;36329;48.816;44.624;2023-02-15T16:59:01;13.7;;;5.9;;
49582;SDS011;36329;48.816;44.624;2023-02-15T17:06:21;11.6;;;5.1;;
49582;SDS011;36329;48.816;44.624;2023-02-15T17:09:42;11.8;;;5.5;;
49582;SDS011;36329;48.816;44.624;2023-02-15T17:13:17;9.5;;;5.4;;
49582;SDS011;36329;48.816;44.624;2023-02-15T17:16:40;15.8;;;6.5;;
49582;SDS011;36329;48.816;44.624;2023-02-15T17:23:46;12.2;;;6.1;;
49582;SDS011;36329;48.816;44.624;2023-02-15T17:27:05;12;;;5.8;;
49582;SDS011;36329;48.816;44.624;2023-02-15T17:37:26;8.9;;;5.1;;
49582;SDS011;36329;48.816;44.624;2023-02-15T17:40:51;8.1;;;5;;
49582;SDS011;36329;48.816;44.624;2023-02-15T17:44:18;9.9;;;5.4;;
49582;SDS011;36329;48.816;44.624;2023-02-15T17:51:22;9.9;;;5.3;;
49582;SDS011;36329;48.816;44.624;2023-02-15T17:54:45;9.2;;;5.5;;
49582;SDS011;36329;48.816;44.624;2023-02-15T17:57:49;9.7;;;5.6;;
49582;SDS011;36329;48.816;44.624;2023-02-15T18:00:52;11.2;;;5.9;;
49582;SDS011;36329;48.816;44.624;2023-02-15T18:03:56;10.8;;;5.8;;
49582;SDS011;36329;48.816;44.624;2023-02-15T18:06:58;11;;;6.4;;
49582;SDS011;36329;48.816;44.624;2023-02-15T18:10:00;10.3;;;5.9;;
49582;SDS011;36329;48.816;44.624;2023-02-15T18:13:02;9.9;;;5.8;;
49582;SDS011;36329;48.816;44.624;2023-02-15T18:16:09;11.5;;;5.9;;
49582;SDS011;36329;48.816;44.624;2023-02-15T18:19:16;10.3;;;5.6;;
49582;SDS011;36329;48.816;44.624;2023-02-15T18:22:20;17.1;;;6.5;;
49582;SDS011;36329;48.816;44.624;2023-02-15T18:25:22;13.6;;;5.6;;
49582;SDS011;36329;48.816;44.624;2023-02-15T18:28:24;9.1;;;5.5;;
49582;SDS011;36329;48.816;44.624;2023-02-15T18:31:26;13.7;;;6;;
49582;SDS011;36329;48.816;44.624;2023-02-15T18:34:30;11.3;;;6.2;;
49582;SDS011;36329;48.816;44.624;2023-02-15T18:37:36;10.1;;;5.9;;
49582;SDS011;36329;48.816;44.624;2023-02-15T18:40:38;11.7;;;6.3;;
49582;SDS011;36329;48.816;44.624;2023-02-15T18:43:40;13.9;;;6.9;;
49582;SDS011;36329;48.816;44.624;2023-02-15T18:46:41;11.5;;;6.1;;
49582;SDS011;36329;48.816;44.624;2023-02-15T18:49:43;12.3;;;6.3;;
49582;SDS011;36329;48.816;44.624;2023-02-15T18:52:46;13.4;;;6.8;;
49582;SDS011;36329;48.816;44.624;2023-02-15T18:55:49;14.7;;;6.9;;
49582;SDS011;36329;48.816;44.624;2023-02-15T18:58:51;17.1;;;6.7;;
49582;SDS011;36329;48.816;44.624;2023-02-15T19:01:55;17;;;6.4;;
49582;SDS011;36329;48.816;44.624;2023-02-15T19:04:57;12.5;;;6.3;;
49582;SDS011;36329;48.816;44.624;2023-02-15T19:07:59;11.7;;;6.2;;
49582;SDS011;36329;48.816;44.624;2023-02-15T19:11:04;17.7;;;6.6;;
49582;SDS011;36329;48.816;44.624;2023-02-15T19:14:07;13.9;;;6.5;;
49582;SDS011;36329;48.816;44.624;2023-02-15T19:17:25;11.9;;;6.7;;
49582;SDS011;36329;48.816;44.624;2023-02-15T19:20:34;13.6;;;6.6;;
49582;SDS011;36329;48.816;44.624;2023-02-15T19:23:38;11.7;;;6.4;;
49582;SDS011;36329;48.816;44.624;2023-02-15T19:26:41;11.5;;;6.2;;
49582;SDS011;36329;48.816;44.624;2023-02-15T19:29:44;14.2;;;6.1;;
49582;SDS011;36329;48.816;44.624;2023-02-15T19:32:46;12.4;;;6.2;;
49582;SDS011;36329;48.816;44.624;2023-02-15T19:35:48;11.5;;;6.4;;
49582;SDS011;36329;48.816;44.624;2023-02-15T19:38:54;12.7;;;6.3;;
49582;SDS011;36329;48.816;44.624;2023-02-15T19:41:56;12.5;;;6.8;;
49582;SDS011;36329;48.816;44.624;2023-02-15T19:44:57;12.1;;;6.3;;
49582;SDS011;36329;48.816;44.624;2023-02-15T19:47:59;13.8;;;6.8;;
49582;SDS011;36329;48.816;44.624;2023-02-15T19:51:02;13.7;;;6.4;;
49582;SDS011;36329;48.816;44.624;2023-02-15T19:54:07;12.6;;;6.7;;
49582;SDS011;36329;48.816;44.624;2023-02-15T19:57:19;12.7;;;6.7;;
49582;SDS011;36329;48.816;44.624;2023-02-15T20:00:42;13.5;;;6.5;;
49582;SDS011;36329;48.816;44.624;2023-02-15T20:04:10;13.4;;;6.2;;
49582;SDS011;36329;48.816;44.624;2023-02-15T20:07:25;13;;;6.4;;
49582;SDS011;36329;48.816;44.624;2023-02-15T20:10:30;13.3;;;6.7;;
49582;SDS011;36329;48.816;44.624;2023-02-15T20:13:43;16.5;;;6.7;;
49582;SDS011;36329;48.816;44.624;2023-02-15T20:17:01;13.5;;;6.6;;
49582;SDS011;36329;48.816;44.624;2023-02-15T20:23:52;14.5;;;6.5;;
49582;SDS011;36329;48.816;44.624;2023-02-15T20:26:57;10.1;;;6.3;;
49582;SDS011;36329;48.816;44.624;2023-02-15T20:30:00;11.2;;;6.4;;
49582;SDS011;36329;48.816;44.624;2023-02-15T20:33:29;12.8;;;7;;
49582;SDS011;36329;48.816;44.624;2023-02-15T20:36:32;11.2;;;6.2;;
49582;SDS011;36329;48.816;44.624;2023-02-15T20:39:43;11.8;;;6.8;;
49582;SDS011;36329;48.816;44.624;2023-02-15T20:43:17;13.5;;;7;;
49582;SDS011;36329;48.816;44.624;2023-02-15T20:46:30;11.8;;;6.9;;
49582;SDS011;36329;48.816;44.624;2023-02-15T20:49:35;13.2;;;6.6;;
49582;SDS011;36329;48.816;44.624;2023-02-15T20:52:44;14.2;;;6.9;;
49582;SDS011;36329;48.816;44.624;2023-02-15T20:55:48;15.5;;;7.4;;
49582;SDS011;36329;48.816;44.624;2023-02-15T20:58:53;13.5;;;7.3;;
49582;SDS011;36329;48.816;44.624;2023-02-15T21:02:03;12.1;;;7.2;;
49582;SDS011;36329;48.816;44.624;2023-02-15T21:05:33;13.2;;;6.9;;
49582;SDS011;36329;48.816;44.624;2023-02-15T21:08:40;14.3;;;7.4;;
49582;SDS011;36329;48.816;44.624;2023-02-15T21:11:44;14.3;;;6.6;;
49582;SDS011;36329;48.816;44.624;2023-02-15T21:15:14;10.9;;;6.2;;
49582;SDS011;36329;48.816;44.624;2023-02-15T21:18:37;13;;;7.4;;
49582;SDS011;36329;48.816;44.624;2023-02-15T21:21:51;14;;;7.4;;
49582;SDS011;36329;48.816;44.624;2023-02-15T21:25:08;13;;;6.8;;
49582;SDS011;36329;48.816;44.624;2023-02-15T21:28:18;12.7;;;6.8;;
49582;SDS011;36329;48.816;44.624;2023-02-15T21:31:28;13.6;;;7.4;;
49582;SDS011;36329;48.816;44.624;2023-02-15T21:34:32;13.5;;;7.4;;
49582;SDS011;36329;48.816;44.624;2023-02-15T21:37:40;14.3;;;7.4;;
49582;SDS011;36329;48.816;44.624;2023-02-15T21:43:59;14.5;;;7.1;;
49582;SDS011;36329;48.816;44.624;2023-02-15T21:47:02;15.2;;;7.5;;
49582;SDS011;36329;48.816;44.624;2023-02-15T21:50:12;14.1;;;7.4;;
49582;SDS011;36329;48.816;44.624;2023-02-15T21:53:29;12.2;;;7.4;;
49582;SDS011;36329;48.816;44.624;2023-02-15T21:56:33;13.1;;;7.1;;
49582;SDS011;36329;48.816;44.624;2023-02-15T21:59:36;15;;;7.8;;
49582;SDS011;36329;48.816;44.624;2023-02-15T22:02:44;14.6;;;7.9;;
49582;SDS011;36329;48.816;44.624;2023-02-15T22:05:48;15.4;;;7.8;;
49582;SDS011;36329;48.816;44.624;2023-02-15T22:08:50;15.8;;;8.4;;
49582;SDS011;36329;48.816;44.624;2023-02-15T22:11:52;13.1;;;7.8;;